sensor_id;sensor_type;location;lat;lon;timestamp;P1;durP1;ratioP1;P2;durP2;ratioP2
70467;SDS011;57934;51.532;7.684;2023-03-23T00:01:03;4.35;;;2.50;;
70467;SDS011;57934;51.532;7.684;2023-03-23T00:03:30;4.03;;;2.38;;
70467;SDS011;57934;51.532;7.684;2023-03-23T00:06:00;3.47;;;2.35;;
70467;SDS011;57934;51.532;7.684;2023-03-23T00:08:28;3.83;;;2.67;;
70467;SDS011;57934;51.532;7.684;2023-03-23T00:10:54;7.05;;;2.50;;
70467;SDS011;57934;51.532;7.684;2023-03-23T00:13:24;4.15;;;2.42;;
70467;SDS011;57934;51.532;7.684;2023-03-23T00:15:50;4.57;;;2.65;;
70467;SDS011;57934;51.532;7.684;2023-03-23T00:18:18;3.92;;;2.40;;
70467;SDS011;57934;51.532;7.684;2023-03-23T00:20:51;5.05;;;2.50;;
70467;SDS011;57934;51.532;7.684;2023-03-23T00:23:20;6.05;;;2.75;;
70467;SDS011;57934;51.532;7.684;2023-03-23T00:25:49;8.52;;;2.90;;
70467;SDS011;57934;51.532;7.684;2023-03-23T00:28:19;5.00;;;2.63;;
70467;SDS011;57934;51.532;7.684;2023-03-23T00:30:54;3.17;;;2.72;;
70467;SDS011;57934;51.532;7.684;2023-03-23T00:33:25;4.20;;;2.40;;
70467;SDS011;57934;51.532;7.684;2023-03-23T00:35:54;5.07;;;2.80;;
70467;SDS011;57934;51.532;7.684;2023-03-23T00:38:23;4.50;;;2.60;;
70467;SDS011;57934;51.532;7.684;2023-03-23T00:40:53;4.70;;;2.30;;
70467;SDS011;57934;51.532;7.684;2023-03-23T00:43:21;4.10;;;2.33;;
70467;SDS011;57934;51.532;7.684;2023-03-23T00:45:50;4.75;;;2.83;;
70467;SDS011;57934;51.532;7.684;2023-03-23T00:48:22;6.88;;;2.70;;
70467;SDS011;57934;51.532;7.684;2023-03-23T00:50:49;3.10;;;2.45;;
70467;SDS011;57934;51.532;7.684;2023-03-23T00:53:17;3.10;;;2.30;;
70467;SDS011;57934;51.532;7.684;2023-03-23T00:55:44;8.10;;;3.40;;
70467;SDS011;57934;51.532;7.684;2023-03-23T00:58:11;4.32;;;2.92;;
70467;SDS011;57934;51.532;7.684;2023-03-23T01:00:38;4.32;;;2.50;;
70467;SDS011;57934;51.532;7.684;2023-03-23T01:03:05;6.47;;;2.65;;
70467;SDS011;57934;51.532;7.684;2023-03-23T01:05:38;5.32;;;2.85;;
70467;SDS011;57934;51.532;7.684;2023-03-23T01:08:05;5.18;;;2.50;;
70467;SDS011;57934;51.532;7.684;2023-03-23T01:10:32;4.68;;;3.35;;
70467;SDS011;57934;51.532;7.684;2023-03-23T01:12:59;3.60;;;2.30;;
70467;SDS011;57934;51.532;7.684;2023-03-23T01:15:29;4.57;;;2.50;;
70467;SDS011;57934;51.532;7.684;2023-03-23T01:17:56;3.88;;;2.10;;
70467;SDS011;57934;51.532;7.684;2023-03-23T01:20:22;5.43;;;2.40;;
70467;SDS011;57934;51.532;7.684;2023-03-23T01:22:49;4.40;;;2.05;;
70467;SDS011;57934;51.532;7.684;2023-03-23T01:25:16;3.92;;;2.05;;
70467;SDS011;57934;51.532;7.684;2023-03-23T01:27:41;5.40;;;2.35;;
70467;SDS011;57934;51.532;7.684;2023-03-23T01:30:08;5.03;;;2.00;;
70467;SDS011;57934;51.532;7.684;2023-03-23T01:32:38;4.30;;;2.28;;
70467;SDS011;57934;51.532;7.684;2023-03-23T01:35:05;4.25;;;1.70;;
70467;SDS011;57934;51.532;7.684;2023-03-23T01:37:31;4.20;;;2.15;;
70467;SDS011;57934;51.532;7.684;2023-03-23T01:39:58;4.15;;;2.25;;
70467;SDS011;57934;51.532;7.684;2023-03-23T01:42:25;3.42;;;2.25;;
70467;SDS011;57934;51.532;7.684;2023-03-23T01:45:39;4.78;;;2.42;;
70467;SDS011;57934;51.532;7.684;2023-03-23T01:47:47;5.03;;;2.60;;
70467;SDS011;57934;51.532;7.684;2023-03-23T01:50:55;5.38;;;2.65;;
70467;SDS011;57934;51.532;7.684;2023-03-23T01:53:28;8.50;;;2.72;;
70467;SDS011;57934;51.532;7.684;2023-03-23T01:55:58;3.63;;;2.60;;
70467;SDS011;57934;51.532;7.684;2023-03-23T01:58:27;4.47;;;2.67;;
70467;SDS011;57934;51.532;7.684;2023-03-23T02:00:58;5.20;;;2.90;;
70467;SDS011;57934;51.532;7.684;2023-03-23T02:03:29;3.88;;;2.70;;
70467;SDS011;57934;51.532;7.684;2023-03-23T02:05:57;6.70;;;3.08;;
70467;SDS011;57934;51.532;7.684;2023-03-23T02:08:50;4.70;;;2.90;;
70467;SDS011;57934;51.532;7.684;2023-03-23T02:11:19;6.32;;;2.92;;
70467;SDS011;57934;51.532;7.684;2023-03-23T02:13:47;5.93;;;3.28;;
70467;SDS011;57934;51.532;7.684;2023-03-23T02:27:31;7.55;;;2.85;;
70467;SDS011;57934;51.532;7.684;2023-03-23T02:39:25;3.42;;;3.03;;
70467;SDS011;57934;51.532;7.684;2023-03-23T02:41:54;3.03;;;2.65;;
70467;SDS011;57934;51.532;7.684;2023-03-23T02:44:23;3.47;;;2.63;;
70467;SDS011;57934;51.532;7.684;2023-03-23T02:46:56;3.42;;;2.38;;
70467;SDS011;57934;51.532;7.684;2023-03-23T02:49:25;6.72;;;3.30;;
70467;SDS011;57934;51.532;7.684;2023-03-23T02:51:56;3.72;;;2.83;;
70467;SDS011;57934;51.532;7.684;2023-03-23T02:54:26;2.70;;;2.50;;
70467;SDS011;57934;51.532;7.684;2023-03-23T02:56:55;5.50;;;2.20;;
70467;SDS011;57934;51.532;7.684;2023-03-23T02:59:26;2.70;;;2.47;;
70467;SDS011;57934;51.532;7.684;2023-03-23T03:02:12;4.97;;;2.70;;
70467;SDS011;57934;51.532;7.684;2023-03-23T03:04:46;3.28;;;2.60;;
70467;SDS011;57934;51.532;7.684;2023-03-23T03:07:30;3.20;;;2.42;;
70467;SDS011;57934;51.532;7.684;2023-03-23T03:10:10;3.53;;;2.88;;
70467;SDS011;57934;51.532;7.684;2023-03-23T03:17:41;4.13;;;2.88;;
70467;SDS011;57934;51.532;7.684;2023-03-23T03:20:15;4.25;;;2.40;;
70467;SDS011;57934;51.532;7.684;2023-03-23T03:22:42;4.45;;;2.58;;
70467;SDS011;57934;51.532;7.684;2023-03-23T03:25:11;3.33;;;2.85;;
70467;SDS011;57934;51.532;7.684;2023-03-23T03:27:39;3.20;;;2.50;;
70467;SDS011;57934;51.532;7.684;2023-03-23T03:30:17;3.90;;;2.40;;
70467;SDS011;57934;51.532;7.684;2023-03-23T03:32:50;2.33;;;2.13;;
70467;SDS011;57934;51.532;7.684;2023-03-23T03:35:20;4.75;;;2.33;;
70467;SDS011;57934;51.532;7.684;2023-03-23T03:37:49;5.28;;;2.60;;
70467;SDS011;57934;51.532;7.684;2023-03-23T03:40:17;4.03;;;2.40;;
70467;SDS011;57934;51.532;7.684;2023-03-23T03:42:45;3.10;;;2.30;;
70467;SDS011;57934;51.532;7.684;2023-03-23T03:45:16;2.63;;;2.30;;
70467;SDS011;57934;51.532;7.684;2023-03-23T03:47:44;2.70;;;2.17;;
70467;SDS011;57934;51.532;7.684;2023-03-23T03:50:11;2.22;;;2.00;;
70467;SDS011;57934;51.532;7.684;2023-03-23T03:52:37;3.45;;;2.03;;
70467;SDS011;57934;51.532;7.684;2023-03-23T03:55:04;2.13;;;1.90;;
70467;SDS011;57934;51.532;7.684;2023-03-23T03:57:33;4.80;;;2.00;;
70467;SDS011;57934;51.532;7.684;2023-03-23T04:00:23;3.25;;;1.92;;
70467;SDS011;57934;51.532;7.684;2023-03-23T04:02:49;2.67;;;1.70;;
70467;SDS011;57934;51.532;7.684;2023-03-23T04:05:45;2.30;;;2.10;;
70467;SDS011;57934;51.532;7.684;2023-03-23T04:08:11;2.05;;;1.77;;
70467;SDS011;57934;51.532;7.684;2023-03-23T04:10:37;1.85;;;1.73;;
70467;SDS011;57934;51.532;7.684;2023-03-23T04:13:03;1.60;;;1.50;;
70467;SDS011;57934;51.532;7.684;2023-03-23T04:15:45;4.25;;;1.77;;
70467;SDS011;57934;51.532;7.684;2023-03-23T04:18:13;6.88;;;1.67;;
70467;SDS011;57934;51.532;7.684;2023-03-23T04:20:42;2.55;;;1.60;;
70467;SDS011;57934;51.532;7.684;2023-03-23T04:23:10;1.85;;;1.70;;
70467;SDS011;57934;51.532;7.684;2023-03-23T04:25:36;1.88;;;1.45;;
70467;SDS011;57934;51.532;7.684;2023-03-23T04:28:04;4.15;;;1.70;;
70467;SDS011;57934;51.532;7.684;2023-03-23T04:30:37;2.47;;;1.70;;
70467;SDS011;57934;51.532;7.684;2023-03-23T04:33:06;2.13;;;1.67;;
70467;SDS011;57934;51.532;7.684;2023-03-23T04:35:33;1.70;;;1.60;;
70467;SDS011;57934;51.532;7.684;2023-03-23T04:38:13;2.83;;;1.88;;
70467;SDS011;57934;51.532;7.684;2023-03-23T04:40:43;2.20;;;1.88;;
70467;SDS011;57934;51.532;7.684;2023-03-23T04:43:22;2.30;;;1.48;;
70467;SDS011;57934;51.532;7.684;2023-03-23T04:46:15;3.05;;;1.50;;
70467;SDS011;57934;51.532;7.684;2023-03-23T04:48:45;2.47;;;1.70;;
70467;SDS011;57934;51.532;7.684;2023-03-23T04:51:18;1.70;;;1.60;;
70467;SDS011;57934;51.532;7.684;2023-03-23T04:53:48;1.75;;;1.65;;
70467;SDS011;57934;51.532;7.684;2023-03-23T04:56:14;2.67;;;1.52;;
70467;SDS011;57934;51.532;7.684;2023-03-23T04:58:44;2.30;;;1.73;;
70467;SDS011;57934;51.532;7.684;2023-03-23T05:01:22;2.40;;;1.77;;
70467;SDS011;57934;51.532;7.684;2023-03-23T05:04:11;1.50;;;1.38;;
70467;SDS011;57934;51.532;7.684;2023-03-23T05:06:43;4.40;;;1.60;;
70467;SDS011;57934;51.532;7.684;2023-03-23T05:09:16;1.63;;;1.52;;
70467;SDS011;57934;51.532;7.684;2023-03-23T05:11:42;2.78;;;1.50;;
70467;SDS011;57934;51.532;7.684;2023-03-23T05:14:08;3.63;;;1.88;;
70467;SDS011;57934;51.532;7.684;2023-03-23T05:16:35;2.00;;;1.90;;
70467;SDS011;57934;51.532;7.684;2023-03-23T05:19:03;2.10;;;1.40;;
70467;SDS011;57934;51.532;7.684;2023-03-23T05:21:31;2.42;;;1.77;;
70467;SDS011;57934;51.532;7.684;2023-03-23T05:23:57;2.03;;;1.70;;
70467;SDS011;57934;51.532;7.684;2023-03-23T05:26:26;2.65;;;1.50;;
70467;SDS011;57934;51.532;7.684;2023-03-23T05:29:06;1.88;;;1.75;;
70467;SDS011;57934;51.532;7.684;2023-03-23T05:31:44;2.08;;;1.60;;
70467;SDS011;57934;51.532;7.684;2023-03-23T05:34:11;2.38;;;1.60;;
70467;SDS011;57934;51.532;7.684;2023-03-23T05:36:58;1.40;;;1.30;;
70467;SDS011;57934;51.532;7.684;2023-03-23T05:39:35;1.85;;;1.75;;
70467;SDS011;57934;51.532;7.684;2023-03-23T05:42:21;3.92;;;1.73;;
70467;SDS011;57934;51.532;7.684;2023-03-23T05:44:55;3.00;;;1.98;;
70467;SDS011;57934;51.532;7.684;2023-03-23T05:47:22;3.60;;;1.92;;
70467;SDS011;57934;51.532;7.684;2023-03-23T05:49:55;4.05;;;2.03;;
70467;SDS011;57934;51.532;7.684;2023-03-23T05:52:23;3.45;;;1.80;;
70467;SDS011;57934;51.532;7.684;2023-03-23T05:54:51;2.03;;;1.83;;
70467;SDS011;57934;51.532;7.684;2023-03-23T05:57:19;2.65;;;2.00;;
70467;SDS011;57934;51.532;7.684;2023-03-23T06:00:01;2.88;;;1.95;;
70467;SDS011;57934;51.532;7.684;2023-03-23T06:02:38;2.40;;;1.73;;
70467;SDS011;57934;51.532;7.684;2023-03-23T06:05:08;2.60;;;1.80;;
70467;SDS011;57934;51.532;7.684;2023-03-23T06:07:37;2.20;;;2.00;;
70467;SDS011;57934;51.532;7.684;2023-03-23T06:10:06;3.90;;;2.25;;
70467;SDS011;57934;51.532;7.684;2023-03-23T06:12:37;2.85;;;2.17;;
70467;SDS011;57934;51.532;7.684;2023-03-23T06:15:22;3.45;;;2.05;;
70467;SDS011;57934;51.532;7.684;2023-03-23T06:18:17;3.13;;;2.30;;
70467;SDS011;57934;51.532;7.684;2023-03-23T06:20:59;2.35;;;2.08;;
70467;SDS011;57934;51.532;7.684;2023-03-23T06:23:41;3.90;;;2.05;;
70467;SDS011;57934;51.532;7.684;2023-03-23T06:26:08;4.55;;;2.67;;
70467;SDS011;57934;51.532;7.684;2023-03-23T06:28:37;6.15;;;2.15;;
70467;SDS011;57934;51.532;7.684;2023-03-23T06:31:05;3.50;;;2.08;;
70467;SDS011;57934;51.532;7.684;2023-03-23T06:33:34;3.15;;;2.17;;
70467;SDS011;57934;51.532;7.684;2023-03-23T06:36:19;3.28;;;2.63;;
70467;SDS011;57934;51.532;7.684;2023-03-23T06:38:52;2.33;;;2.13;;
70467;SDS011;57934;51.532;7.684;2023-03-23T06:41:24;2.35;;;2.05;;
70467;SDS011;57934;51.532;7.684;2023-03-23T06:43:51;2.78;;;1.75;;
70467;SDS011;57934;51.532;7.684;2023-03-23T06:46:23;2.65;;;1.98;;
70467;SDS011;57934;51.532;7.684;2023-03-23T06:48:52;3.20;;;2.20;;
70467;SDS011;57934;51.532;7.684;2023-03-23T06:51:25;4.47;;;2.13;;
70467;SDS011;57934;51.532;7.684;2023-03-23T06:53:54;3.85;;;2.30;;
70467;SDS011;57934;51.532;7.684;2023-03-23T06:56:20;3.05;;;2.60;;
70467;SDS011;57934;51.532;7.684;2023-03-23T06:58:46;4.47;;;2.30;;
70467;SDS011;57934;51.532;7.684;2023-03-23T07:01:13;4.30;;;2.03;;
70467;SDS011;57934;51.532;7.684;2023-03-23T07:03:47;1.95;;;1.75;;
70467;SDS011;57934;51.532;7.684;2023-03-23T07:06:18;3.65;;;2.08;;
70467;SDS011;57934;51.532;7.684;2023-03-23T07:08:50;4.60;;;2.28;;
70467;SDS011;57934;51.532;7.684;2023-03-23T07:11:21;5.15;;;1.92;;
70467;SDS011;57934;51.532;7.684;2023-03-23T07:13:47;2.88;;;1.92;;
70467;SDS011;57934;51.532;7.684;2023-03-23T07:16:16;2.67;;;1.98;;
70467;SDS011;57934;51.532;7.684;2023-03-23T07:18:43;3.95;;;1.80;;
70467;SDS011;57934;51.532;7.684;2023-03-23T07:21:10;3.30;;;1.90;;
70467;SDS011;57934;51.532;7.684;2023-03-23T07:23:38;5.95;;;2.10;;
70467;SDS011;57934;51.532;7.684;2023-03-23T07:26:08;3.28;;;2.10;;
70467;SDS011;57934;51.532;7.684;2023-03-23T07:28:41;5.22;;;2.25;;
70467;SDS011;57934;51.532;7.684;2023-03-23T07:31:20;5.38;;;2.20;;
70467;SDS011;57934;51.532;7.684;2023-03-23T07:33:46;4.75;;;1.98;;
70467;SDS011;57934;51.532;7.684;2023-03-23T07:36:12;5.40;;;2.05;;
70467;SDS011;57934;51.532;7.684;2023-03-23T07:38:38;4.15;;;2.13;;
70467;SDS011;57934;51.532;7.684;2023-03-23T07:41:05;8.50;;;2.42;;
70467;SDS011;57934;51.532;7.684;2023-03-23T07:43:32;4.50;;;2.33;;
70467;SDS011;57934;51.532;7.684;2023-03-23T07:46:10;8.68;;;2.38;;
70467;SDS011;57934;51.532;7.684;2023-03-23T07:48:49;4.63;;;1.90;;
70467;SDS011;57934;51.532;7.684;2023-03-23T07:51:16;10.27;;;2.47;;
70467;SDS011;57934;51.532;7.684;2023-03-23T07:53:44;14.20;;;2.20;;
70467;SDS011;57934;51.532;7.684;2023-03-23T07:56:35;10.57;;;2.88;;
70467;SDS011;57934;51.532;7.684;2023-03-23T07:59:10;49.10;;;4.32;;
70467;SDS011;57934;51.532;7.684;2023-03-23T08:01:39;16.30;;;2.75;;
70467;SDS011;57934;51.532;7.684;2023-03-23T08:04:28;8.30;;;1.80;;
70467;SDS011;57934;51.532;7.684;2023-03-23T08:07:13;22.42;;;4.55;;
70467;SDS011;57934;51.532;7.684;2023-03-23T08:10:02;3.45;;;2.25;;
70467;SDS011;57934;51.532;7.684;2023-03-23T08:12:38;12.40;;;2.22;;
70467;SDS011;57934;51.532;7.684;2023-03-23T08:15:23;13.73;;;2.20;;
70467;SDS011;57934;51.532;7.684;2023-03-23T08:18:08;9.90;;;2.15;;
70467;SDS011;57934;51.532;7.684;2023-03-23T08:21:03;20.20;;;2.33;;
70467;SDS011;57934;51.532;7.684;2023-03-23T08:23:51;4.63;;;1.73;;
70467;SDS011;57934;51.532;7.684;2023-03-23T08:26:47;8.52;;;1.95;;
70467;SDS011;57934;51.532;7.684;2023-03-23T08:29:32;13.40;;;1.90;;
70467;SDS011;57934;51.532;7.684;2023-03-23T08:31:58;4.25;;;1.95;;
70467;SDS011;57934;51.532;7.684;2023-03-23T08:34:43;16.48;;;3.20;;
70467;SDS011;57934;51.532;7.684;2023-03-23T08:37:38;21.13;;;3.43;;
70467;SDS011;57934;51.532;7.684;2023-03-23T08:40:11;8.70;;;2.15;;
70467;SDS011;57934;51.532;7.684;2023-03-23T08:43:15;4.30;;;1.60;;
70467;SDS011;57934;51.532;7.684;2023-03-23T08:46:01;4.13;;;2.03;;
70467;SDS011;57934;51.532;7.684;2023-03-23T08:49:01;3.47;;;1.70;;
70467;SDS011;57934;51.532;7.684;2023-03-23T08:51:51;5.32;;;1.52;;
70467;SDS011;57934;51.532;7.684;2023-03-23T08:54:35;3.17;;;1.88;;
70467;SDS011;57934;51.532;7.684;2023-03-23T08:57:26;4.35;;;1.58;;
70467;SDS011;57934;51.532;7.684;2023-03-23T09:00:07;5.53;;;2.17;;
70467;SDS011;57934;51.532;7.684;2023-03-23T09:03:15;3.13;;;1.48;;
70467;SDS011;57934;51.532;7.684;2023-03-23T09:06:06;3.10;;;1.90;;
70467;SDS011;57934;51.532;7.684;2023-03-23T09:08:43;3.90;;;2.00;;
70467;SDS011;57934;51.532;7.684;2023-03-23T09:11:10;6.60;;;2.47;;
70467;SDS011;57934;51.532;7.684;2023-03-23T09:13:37;4.95;;;1.67;;
70467;SDS011;57934;51.532;7.684;2023-03-23T09:16:05;4.05;;;1.70;;
70467;SDS011;57934;51.532;7.684;2023-03-23T09:18:32;3.53;;;1.60;;
70467;SDS011;57934;51.532;7.684;2023-03-23T09:20:59;3.53;;;1.85;;
70467;SDS011;57934;51.532;7.684;2023-03-23T09:23:25;3.85;;;1.80;;
70467;SDS011;57934;51.532;7.684;2023-03-23T09:25:52;5.15;;;1.67;;
70467;SDS011;57934;51.532;7.684;2023-03-23T09:28:18;6.45;;;2.15;;
70467;SDS011;57934;51.532;7.684;2023-03-23T09:30:45;4.72;;;1.55;;
70467;SDS011;57934;51.532;7.684;2023-03-23T09:33:13;8.95;;;2.00;;
70467;SDS011;57934;51.532;7.684;2023-03-23T09:35:40;8.63;;;1.90;;
70467;SDS011;57934;51.532;7.684;2023-03-23T09:38:08;5.75;;;1.98;;
70467;SDS011;57934;51.532;7.684;2023-03-23T09:43:36;5.07;;;1.95;;
70467;SDS011;57934;51.532;7.684;2023-03-23T09:48:52;5.78;;;1.90;;
70467;SDS011;57934;51.532;7.684;2023-03-23T09:51:38;8.65;;;2.13;;
70467;SDS011;57934;51.532;7.684;2023-03-23T09:54:34;6.22;;;2.10;;
70467;SDS011;57934;51.532;7.684;2023-03-23T09:57:03;7.97;;;3.05;;
70467;SDS011;57934;51.532;7.684;2023-03-23T09:59:41;8.20;;;2.53;;
70467;SDS011;57934;51.532;7.684;2023-03-23T10:04:47;27.80;;;3.95;;
70467;SDS011;57934;51.532;7.684;2023-03-23T10:09:49;17.02;;;2.75;;
70467;SDS011;57934;51.532;7.684;2023-03-23T10:17:28;9.38;;;2.28;;
70467;SDS011;57934;51.532;7.684;2023-03-23T10:25:41;9.48;;;2.00;;
70467;SDS011;57934;51.532;7.684;2023-03-23T10:28:12;14.98;;;2.60;;
70467;SDS011;57934;51.532;7.684;2023-03-23T10:30:57;6.45;;;2.28;;
70467;SDS011;57934;51.532;7.684;2023-03-23T10:33:26;10.63;;;2.10;;
70467;SDS011;57934;51.532;7.684;2023-03-23T10:36:00;8.88;;;2.00;;
70467;SDS011;57934;51.532;7.684;2023-03-23T10:38:35;10.33;;;2.17;;
70467;SDS011;57934;51.532;7.684;2023-03-23T10:41:06;6.57;;;2.75;;
70467;SDS011;57934;51.532;7.684;2023-03-23T10:43:39;4.82;;;1.73;;
70467;SDS011;57934;51.532;7.684;2023-03-23T10:49:04;8.07;;;1.60;;
70467;SDS011;57934;51.532;7.684;2023-03-23T10:51:36;5.18;;;1.58;;
70467;SDS011;57934;51.532;7.684;2023-03-23T10:54:05;4.60;;;1.17;;
70467;SDS011;57934;51.532;7.684;2023-03-23T10:59:18;5.40;;;1.15;;
70467;SDS011;57934;51.532;7.684;2023-03-23T11:01:47;2.97;;;1.10;;
70467;SDS011;57934;51.532;7.684;2023-03-23T11:04:17;6.03;;;1.40;;
70467;SDS011;57934;51.532;7.684;2023-03-23T11:06:45;6.05;;;1.27;;
70467;SDS011;57934;51.532;7.684;2023-03-23T11:09:15;4.05;;;1.35;;
70467;SDS011;57934;51.532;7.684;2023-03-23T11:11:50;2.20;;;1.33;;
70467;SDS011;57934;51.532;7.684;2023-03-23T11:14:27;5.95;;;1.85;;
70467;SDS011;57934;51.532;7.684;2023-03-23T11:17:00;4.93;;;1.30;;
70467;SDS011;57934;51.532;7.684;2023-03-23T11:19:28;7.50;;;2.35;;
70467;SDS011;57934;51.532;7.684;2023-03-23T11:24:31;5.28;;;1.50;;
70467;SDS011;57934;51.532;7.684;2023-03-23T11:27:06;5.68;;;1.63;;
70467;SDS011;57934;51.532;7.684;2023-03-23T11:29:34;6.07;;;1.50;;
70467;SDS011;57934;51.532;7.684;2023-03-23T11:32:04;5.25;;;1.58;;
70467;SDS011;57934;51.532;7.684;2023-03-23T11:34:34;2.60;;;1.40;;
70467;SDS011;57934;51.532;7.684;2023-03-23T11:37:07;3.45;;;1.40;;
70467;SDS011;57934;51.532;7.684;2023-03-23T11:42:25;8.65;;;1.85;;
70467;SDS011;57934;51.532;7.684;2023-03-23T11:50:55;4.88;;;2.30;;
70467;SDS011;57934;51.532;7.684;2023-03-23T11:56:17;4.70;;;2.00;;
70467;SDS011;57934;51.532;7.684;2023-03-23T11:58:51;4.60;;;2.25;;
70467;SDS011;57934;51.532;7.684;2023-03-23T12:04:01;4.03;;;3.58;;
70467;SDS011;57934;51.532;7.684;2023-03-23T12:10:03;5.93;;;3.88;;
70467;SDS011;57934;51.532;7.684;2023-03-23T12:30:59;8.80;;;7.78;;
70467;SDS011;57934;51.532;7.684;2023-03-23T12:41:39;11.25;;;8.68;;
70467;SDS011;57934;51.532;7.684;2023-03-23T12:46:51;10.77;;;9.35;;
70467;SDS011;57934;51.532;7.684;2023-03-23T12:49:33;10.30;;;9.30;;
70467;SDS011;57934;51.532;7.684;2023-03-23T12:59:55;9.07;;;8.20;;
70467;SDS011;57934;51.532;7.684;2023-03-23T13:02:32;10.18;;;7.50;;
70467;SDS011;57934;51.532;7.684;2023-03-23T13:05:05;8.05;;;7.13;;
70467;SDS011;57934;51.532;7.684;2023-03-23T13:07:37;11.20;;;5.95;;
70467;SDS011;57934;51.532;7.684;2023-03-23T13:12:46;10.13;;;6.05;;
70467;SDS011;57934;51.532;7.684;2023-03-23T13:18:10;9.30;;;7.97;;
70467;SDS011;57934;51.532;7.684;2023-03-23T13:26:14;6.57;;;5.57;;
70467;SDS011;57934;51.532;7.684;2023-03-23T13:28:55;21.73;;;6.05;;
70467;SDS011;57934;51.532;7.684;2023-03-23T13:31:25;37.13;;;6.10;;
70467;SDS011;57934;51.532;7.684;2023-03-23T13:33:58;26.40;;;6.45;;
70467;SDS011;57934;51.532;7.684;2023-03-23T13:36:28;13.30;;;5.32;;
70467;SDS011;57934;51.532;7.684;2023-03-23T13:39:02;17.25;;;5.03;;
70467;SDS011;57934;51.532;7.684;2023-03-23T13:41:30;45.38;;;6.32;;
70467;SDS011;57934;51.532;7.684;2023-03-23T13:44:15;7.78;;;4.15;;
70467;SDS011;57934;51.532;7.684;2023-03-23T13:50:02;6.72;;;3.55;;
70467;SDS011;57934;51.532;7.684;2023-03-23T14:03:13;3.78;;;2.60;;
70467;SDS011;57934;51.532;7.684;2023-03-23T14:10:56;9.02;;;2.58;;
70467;SDS011;57934;51.532;7.684;2023-03-23T14:16:04;3.65;;;2.42;;
70467;SDS011;57934;51.532;7.684;2023-03-23T14:18:40;10.07;;;3.00;;
70467;SDS011;57934;51.532;7.684;2023-03-23T14:21:15;18.60;;;3.78;;
70467;SDS011;57934;51.532;7.684;2023-03-23T14:23:50;10.48;;;3.58;;
70467;SDS011;57934;51.532;7.684;2023-03-23T14:26:17;21.70;;;4.78;;
70467;SDS011;57934;51.532;7.684;2023-03-23T14:28:49;10.50;;;4.70;;
70467;SDS011;57934;51.532;7.684;2023-03-23T14:31:23;26.83;;;5.88;;
70467;SDS011;57934;51.532;7.684;2023-03-23T14:36:22;18.88;;;6.97;;
70467;SDS011;57934;51.532;7.684;2023-03-23T14:39:00;23.98;;;7.13;;
70467;SDS011;57934;51.532;7.684;2023-03-23T14:41:34;9.48;;;7.88;;
70467;SDS011;57934;51.532;7.684;2023-03-23T14:44:02;12.57;;;8.43;;
70467;SDS011;57934;51.532;7.684;2023-03-23T14:46:31;12.35;;;9.70;;
70467;SDS011;57934;51.532;7.684;2023-03-23T14:49:04;12.65;;;10.25;;
70467;SDS011;57934;51.532;7.684;2023-03-23T14:51:31;16.55;;;10.88;;
70467;SDS011;57934;51.532;7.684;2023-03-23T14:53:58;18.00;;;11.88;;
70467;SDS011;57934;51.532;7.684;2023-03-23T14:56:31;20.25;;;12.35;;
70467;SDS011;57934;51.532;7.684;2023-03-23T14:59:04;24.80;;;12.55;;
70467;SDS011;57934;51.532;7.684;2023-03-23T15:01:32;20.02;;;12.68;;
70467;SDS011;57934;51.532;7.684;2023-03-23T15:04:06;22.05;;;13.90;;
70467;SDS011;57934;51.532;7.684;2023-03-23T15:06:45;19.42;;;12.43;;
70467;SDS011;57934;51.532;7.684;2023-03-23T15:09:16;17.17;;;12.38;;
70467;SDS011;57934;51.532;7.684;2023-03-23T15:11:51;15.02;;;12.18;;
70467;SDS011;57934;51.532;7.684;2023-03-23T15:14:21;18.23;;;11.93;;
70467;SDS011;57934;51.532;7.684;2023-03-23T15:16:51;15.88;;;12.27;;
70467;SDS011;57934;51.532;7.684;2023-03-23T15:19:24;15.73;;;11.00;;
70467;SDS011;57934;51.532;7.684;2023-03-23T15:21:55;17.58;;;10.90;;
70467;SDS011;57934;51.532;7.684;2023-03-23T15:24:33;13.60;;;9.70;;
70467;SDS011;57934;51.532;7.684;2023-03-23T15:27:14;14.85;;;9.50;;
70467;SDS011;57934;51.532;7.684;2023-03-23T15:29:49;12.05;;;9.15;;
70467;SDS011;57934;51.532;7.684;2023-03-23T15:32:38;12.48;;;9.40;;
70467;SDS011;57934;51.532;7.684;2023-03-23T15:35:16;13.93;;;7.57;;
70467;SDS011;57934;51.532;7.684;2023-03-23T15:37:47;10.88;;;6.63;;
70467;SDS011;57934;51.532;7.684;2023-03-23T15:40:22;8.77;;;5.38;;
70467;SDS011;57934;51.532;7.684;2023-03-23T15:42:50;8.77;;;4.38;;
70467;SDS011;57934;51.532;7.684;2023-03-23T15:45:57;8.57;;;3.63;;
70467;SDS011;57934;51.532;7.684;2023-03-23T15:51:25;9.10;;;2.80;;
70467;SDS011;57934;51.532;7.684;2023-03-23T15:53:53;6.38;;;2.78;;
70467;SDS011;57934;51.532;7.684;2023-03-23T15:56:20;11.70;;;2.90;;
70467;SDS011;57934;51.532;7.684;2023-03-23T15:58:47;21.88;;;3.42;;
70467;SDS011;57934;51.532;7.684;2023-03-23T16:01:33;10.02;;;3.10;;
70467;SDS011;57934;51.532;7.684;2023-03-23T16:04:21;9.27;;;2.55;;
70467;SDS011;57934;51.532;7.684;2023-03-23T16:06:46;7.38;;;2.50;;
70467;SDS011;57934;51.532;7.684;2023-03-23T16:09:14;5.40;;;2.00;;
70467;SDS011;57934;51.532;7.684;2023-03-23T16:11:41;4.43;;;1.98;;
70467;SDS011;57934;51.532;7.684;2023-03-23T16:14:08;5.05;;;2.10;;
70467;SDS011;57934;51.532;7.684;2023-03-23T16:16:39;9.35;;;2.38;;
70467;SDS011;57934;51.532;7.684;2023-03-23T16:19:10;5.00;;;2.60;;
70467;SDS011;57934;51.532;7.684;2023-03-23T16:21:38;4.70;;;2.65;;
70467;SDS011;57934;51.532;7.684;2023-03-23T16:24:04;2.45;;;1.70;;
70467;SDS011;57934;51.532;7.684;2023-03-23T16:26:30;9.05;;;2.20;;
70467;SDS011;57934;51.532;7.684;2023-03-23T16:28:57;5.60;;;2.35;;
70467;SDS011;57934;51.532;7.684;2023-03-23T16:31:23;6.60;;;2.50;;
70467;SDS011;57934;51.532;7.684;2023-03-23T16:33:49;7.80;;;2.78;;
70467;SDS011;57934;51.532;7.684;2023-03-23T16:36:15;5.53;;;3.67;;
70467;SDS011;57934;51.532;7.684;2023-03-23T16:38:41;10.63;;;2.67;;
70467;SDS011;57934;51.532;7.684;2023-03-23T16:41:07;7.75;;;2.80;;
70467;SDS011;57934;51.532;7.684;2023-03-23T16:43:34;4.45;;;2.70;;
70467;SDS011;57934;51.532;7.684;2023-03-23T16:46:00;10.15;;;2.97;;
70467;SDS011;57934;51.532;7.684;2023-03-23T16:48:26;8.43;;;2.78;;
70467;SDS011;57934;51.532;7.684;2023-03-23T16:50:53;9.18;;;2.88;;
70467;SDS011;57934;51.532;7.684;2023-03-23T16:53:19;11.43;;;2.70;;
70467;SDS011;57934;51.532;7.684;2023-03-23T16:55:46;53.35;;;5.20;;
70467;SDS011;57934;51.532;7.684;2023-03-23T16:58:13;7.75;;;3.20;;
70467;SDS011;57934;51.532;7.684;2023-03-23T17:00:41;7.47;;;3.00;;
70467;SDS011;57934;51.532;7.684;2023-03-23T17:03:08;11.02;;;2.92;;
70467;SDS011;57934;51.532;7.684;2023-03-23T17:05:34;8.73;;;3.63;;
70467;SDS011;57934;51.532;7.684;2023-03-23T17:08:01;8.93;;;3.28;;
70467;SDS011;57934;51.532;7.684;2023-03-23T17:10:28;6.07;;;2.92;;
70467;SDS011;57934;51.532;7.684;2023-03-23T17:12:55;13.55;;;3.17;;
70467;SDS011;57934;51.532;7.684;2023-03-23T17:15:21;14.88;;;3.00;;
70467;SDS011;57934;51.532;7.684;2023-03-23T17:17:50;7.00;;;3.28;;
70467;SDS011;57934;51.532;7.684;2023-03-23T17:20:17;8.48;;;3.17;;
70467;SDS011;57934;51.532;7.684;2023-03-23T17:22:43;8.18;;;3.97;;
70467;SDS011;57934;51.532;7.684;2023-03-23T17:25:09;8.50;;;3.15;;
70467;SDS011;57934;51.532;7.684;2023-03-23T17:27:35;7.03;;;2.72;;
70467;SDS011;57934;51.532;7.684;2023-03-23T17:30:03;8.32;;;2.38;;
70467;SDS011;57934;51.532;7.684;2023-03-23T17:32:30;8.57;;;3.30;;
70467;SDS011;57934;51.532;7.684;2023-03-23T17:34:58;21.42;;;3.15;;
70467;SDS011;57934;51.532;7.684;2023-03-23T17:37:24;40.45;;;3.95;;
70467;SDS011;57934;51.532;7.684;2023-03-23T17:39:50;17.52;;;2.40;;
70467;SDS011;57934;51.532;7.684;2023-03-23T17:42:16;56.72;;;4.72;;
70467;SDS011;57934;51.532;7.684;2023-03-23T17:44:43;5.00;;;2.38;;